createdAt,value
2018-02-13T00:01:17.568Z,81.10
2018-02-13T00:03:43.930Z,81.10
2018-02-13T00:06:10.286Z,81.60
2018-02-13T00:08:36.647Z,81.60
2018-02-13T00:11:03.761Z,82.00
2018-02-13T00:13:30.331Z,82.00
2018-02-13T00:15:57.446Z,81.70
2018-02-13T00:18:23.821Z,81.70
2018-02-13T00:20:50.226Z,81.10
2018-02-13T00:23:16.731Z,81.30
2018-02-13T00:25:43.805Z,81.40
2018-02-13T00:28:10.179Z,81.30
2018-02-13T00:30:36.574Z,81.30
2018-02-13T00:33:02.946Z,81.30
2018-02-13T00:35:29.314Z,81.60
2018-02-13T00:37:55.676Z,81.60
2018-02-13T00:40:22.038Z,81.60
2018-02-13T00:42:48.426Z,81.60
2018-02-13T00:45:14.790Z,81.70
2018-02-13T00:47:41.166Z,82.00
2018-02-13T00:50:07.542Z,82.70
2018-02-13T00:52:34.904Z,82.80
2018-02-13T00:55:01.285Z,82.80
2018-02-13T00:57:27.638Z,82.80
2018-02-13T00:59:54.004Z,82.70
2018-02-13T01:02:20.382Z,82.80
2018-02-13T01:04:46.765Z,83.10
2018-02-13T01:07:13.123Z,83.20
2018-02-13T01:09:39.490Z,83.20
2018-02-13T01:12:05.869Z,83.10
2018-02-13T01:14:32.288Z,83.80
2018-02-13T01:16:59.386Z,83.60
2018-02-13T01:19:25.754Z,83.60
2018-02-13T01:21:52.854Z,84.60
2018-02-13T01:24:19.210Z,84.20
2018-02-13T01:26:45.585Z,84.30
2018-02-13T01:29:11.930Z,84.20
2018-02-13T01:31:38.289Z,84.10
2018-02-13T01:34:04.983Z,83.70
2018-02-13T01:36:31.348Z,83.60
2018-02-13T01:38:57.767Z,83.70
2018-02-13T01:41:24.120Z,83.30
2018-02-13T01:43:50.492Z,83.50
2018-02-13T01:46:17.584Z,82.90
2018-02-13T01:48:43.944Z,82.90
2018-02-13T01:51:10.323Z,83.10
2018-02-13T01:53:36.703Z,82.60
2018-02-13T01:56:03.062Z,82.50
2018-02-13T01:58:29.422Z,82.50
2018-02-13T02:00:55.817Z,83.10
2018-02-13T02:03:22.937Z,83.70
2018-02-13T02:05:49.290Z,83.70
2018-02-13T02:08:17.122Z,83.20
2018-02-13T02:10:43.470Z,83.10
2018-02-13T02:13:09.835Z,83.50
2018-02-13T02:15:36.936Z,83.50
2018-02-13T02:18:03.354Z,83.40
2018-02-13T02:20:29.718Z,83.80
2018-02-13T02:22:56.111Z,83.90
2018-02-13T02:25:22.481Z,83.80
2018-02-13T02:27:48.840Z,83.90
2018-02-13T02:30:15.206Z,83.50
2018-02-13T02:32:41.576Z,83.40
2018-02-13T02:35:08.020Z,83.40
2018-02-13T02:37:34.394Z,83.00
2018-02-13T02:40:00.750Z,82.90
2018-02-13T02:42:48.007Z,83.00
2018-02-13T02:45:14.373Z,82.80
2018-02-13T02:47:40.723Z,83.10
2018-02-13T02:50:07.091Z,82.90
2018-02-13T02:52:33.463Z,82.60
2018-02-13T02:54:59.821Z,82.10
2018-02-13T02:57:26.185Z,81.60
2018-02-13T02:59:52.605Z,80.70
2018-02-13T03:02:18.938Z,80.40
2018-02-13T03:04:46.788Z,80.40
2018-02-13T03:07:13.148Z,80.30
2018-02-13T03:09:39.517Z,80.00
2018-02-13T03:12:05.895Z,81.50
2018-02-13T03:14:32.266Z,81.30
2018-02-13T03:16:59.361Z,82.10
2018-02-13T03:19:26.531Z,81.80
2018-02-13T03:21:54.455Z,81.90
2018-02-13T03:24:20.825Z,81.90
2018-02-13T03:26:47.209Z,81.80
2018-02-13T03:29:13.565Z,81.50
2018-02-13T03:31:39.931Z,81.90
2018-02-13T03:34:06.320Z,82.00
2018-02-13T03:36:32.832Z,82.10
2018-02-13T03:38:59.242Z,81.70
2018-02-13T03:41:26.342Z,82.50
2018-02-13T03:43:52.705Z,82.40
2018-02-13T03:46:19.070Z,82.10
2018-02-13T03:48:46.179Z,81.50
2018-02-13T03:51:12.548Z,81.50
2018-02-13T03:53:39.630Z,81.60
2018-02-13T03:56:05.991Z,81.60
2018-02-13T03:58:32.351Z,81.90
2018-02-13T04:00:59.461Z,81.30
2018-02-13T04:03:25.879Z,81.30
2018-02-13T04:05:52.234Z,81.10
2018-02-13T04:08:18.582Z,82.20
2018-02-13T04:10:44.950Z,82.30
2018-02-13T04:13:11.321Z,81.60
2018-02-13T04:15:37.721Z,81.70
2018-02-13T04:18:04.069Z,81.60
2018-02-13T04:20:30.420Z,81.60
2018-02-13T04:22:56.774Z,81.20
2018-02-13T04:25:23.130Z,81.70
2018-02-13T04:27:49.495Z,81.80
2018-02-13T04:30:15.866Z,81.70
2018-02-13T04:32:42.224Z,81.40
2018-02-13T04:35:09.326Z,81.40
2018-02-13T04:37:35.797Z,81.40
2018-02-13T04:40:02.195Z,81.50
2018-02-13T04:42:28.621Z,81.60
2018-02-13T04:44:54.991Z,81.60
2018-02-13T04:47:22.087Z,81.60
2018-02-13T04:49:48.496Z,81.60
2018-02-13T04:52:14.900Z,81.80
2018-02-13T04:54:41.997Z,81.50
2018-02-13T04:57:08.371Z,81.40
2018-02-13T04:59:34.730Z,81.60
2018-02-13T05:02:01.104Z,81.20
2018-02-13T05:04:27.488Z,81.20
2018-02-13T05:06:54.629Z,81.20
2018-02-13T05:09:21.737Z,81.20
2018-02-13T05:11:48.257Z,81.20
2018-02-13T05:14:14.630Z,81.70
2018-02-13T05:16:40.990Z,82.10
2018-02-13T05:19:07.412Z,82.30
2018-02-13T05:21:33.749Z,81.90
2018-02-13T05:24:00.137Z,82.40
2018-02-13T05:26:26.516Z,82.90
2018-02-13T05:28:52.873Z,83.00
2018-02-13T05:31:19.218Z,83.00
2018-02-13T05:33:45.570Z,82.70
2018-02-13T05:36:11.938Z,82.40
2018-02-13T05:38:38.315Z,82.10
2018-02-13T05:41:04.901Z,82.40
2018-02-13T05:43:31.335Z,82.50
2018-02-13T05:45:57.701Z,82.60
2018-02-13T05:48:24.071Z,82.60
2018-02-13T05:50:51.191Z,83.50
2018-02-13T05:53:17.676Z,83.40
2018-02-13T05:55:44.762Z,83.10
2018-02-13T05:58:11.186Z,83.10
2018-02-13T06:00:37.619Z,82.90
2018-02-13T06:03:04.702Z,83.50
2018-02-13T06:05:31.050Z,83.50
2018-02-13T06:07:57.422Z,84.10
2018-02-13T06:10:23.820Z,84.80
2018-02-13T06:12:50.933Z,83.80
2018-02-13T06:15:17.307Z,83.80
2018-02-13T06:17:44.413Z,83.70
2018-02-13T06:20:10.780Z,83.60
2018-02-13T06:22:37.890Z,83.50
2018-02-13T06:25:04.276Z,83.50
2018-02-13T06:27:30.650Z,83.70
2018-02-13T06:29:57.012Z,83.40
2018-02-13T06:32:23.371Z,83.10
2018-02-13T06:34:49.733Z,82.90
2018-02-13T06:37:16.078Z,82.90
2018-02-13T06:39:42.877Z,83.00
2018-02-13T06:42:10.087Z,83.60
2018-02-13T06:44:37.198Z,83.30
2018-02-13T06:47:03.565Z,83.30
2018-02-13T06:49:29.922Z,83.10
2018-02-13T06:51:57.007Z,83.90
2018-02-13T06:54:23.374Z,83.20
2018-02-13T06:56:49.834Z,83.10
2018-02-13T06:59:16.941Z,83.70
2018-02-13T07:01:43.354Z,83.70
2018-02-13T07:04:09.715Z,84.70
2018-02-13T07:06:36.085Z,86.20
2018-02-13T07:09:03.259Z,85.00
2018-02-13T07:11:29.670Z,85.10
2018-02-13T07:13:56.805Z,84.50
2018-02-13T07:16:23.203Z,84.50
2018-02-13T07:18:49.580Z,83.10
2018-02-13T07:21:15.959Z,83.50
2018-02-13T07:23:42.379Z,83.80
2018-02-13T07:26:08.752Z,82.60
2018-02-13T07:28:35.130Z,81.00
2018-02-13T07:31:01.516Z,81.70
2018-02-13T07:33:27.885Z,81.30
2018-02-13T07:35:54.290Z,80.60
2018-02-13T07:38:21.006Z,79.70
2018-02-13T07:40:47.382Z,79.50
2018-02-13T07:43:13.738Z,80.00
2018-02-13T07:45:40.163Z,80.40
2018-02-13T07:48:06.555Z,79.60
2018-02-13T07:50:32.939Z,80.00
2018-02-13T07:52:59.311Z,80.40
2018-02-13T07:55:27.158Z,80.00
2018-02-13T07:57:53.595Z,80.00
2018-02-13T08:00:20.764Z,79.30
2018-02-13T08:02:47.114Z,79.40
2018-02-13T08:05:14.222Z,80.20
2018-02-13T08:07:40.583Z,80.80
2018-02-13T08:10:07.690Z,78.70
2018-02-13T08:12:34.071Z,78.60
2018-02-13T08:15:01.212Z,79.20
2018-02-13T08:17:28.309Z,78.80
2018-02-13T08:19:54.713Z,78.80
2018-02-13T08:22:21.101Z,79.00
2018-02-13T08:24:47.468Z,78.90
2018-02-13T08:27:14.868Z,79.40
2018-02-13T08:29:41.292Z,79.40
2018-02-13T08:32:07.675Z,80.30
2018-02-13T08:34:34.762Z,78.00
2018-02-13T08:37:01.130Z,77.80
2018-02-13T08:39:27.496Z,76.40
2018-02-13T08:41:54.604Z,77.50
2018-02-13T08:44:21.773Z,79.10
2018-02-13T08:46:48.139Z,79.20
2018-02-13T08:49:15.026Z,79.30
2018-02-13T08:51:42.144Z,78.50
2018-02-13T08:54:08.519Z,78.50
2018-02-13T08:56:36.371Z,74.60
2018-02-13T08:59:02.737Z,74.60
2018-02-13T09:01:29.932Z,75.60
2018-02-13T09:03:56.293Z,75.50
2018-02-13T09:06:22.646Z,77.40
2018-02-13T09:08:49.260Z,78.90
2018-02-13T09:11:15.617Z,79.70
2018-02-13T09:13:42.738Z,79.00
2018-02-13T09:16:09.134Z,79.50
2018-02-13T09:18:35.515Z,79.70
2018-02-13T09:21:01.889Z,79.70
2018-02-13T09:23:28.264Z,78.80
2018-02-13T09:25:55.362Z,75.10
2018-02-13T09:28:22.455Z,73.20
2018-02-13T09:30:48.821Z,73.10
2018-02-13T09:33:15.930Z,66.70
2018-02-13T09:35:42.287Z,66.70
2018-02-13T09:38:08.656Z,66.00
2018-02-13T09:40:35.741Z,60.60
2018-02-13T09:43:02.163Z,60.60
2018-02-13T09:45:28.533Z,60.80
2018-02-13T09:47:55.657Z,58.80
2018-02-13T09:50:22.074Z,58.70
2018-02-13T09:52:48.441Z,60.90
2018-02-13T09:55:14.801Z,68.20
2018-02-13T09:57:41.899Z,70.90
2018-02-13T10:00:08.282Z,70.90
2018-02-13T10:02:35.440Z,65.90
2018-02-13T10:05:01.894Z,65.90
2018-02-13T10:07:28.264Z,64.90
2018-02-13T10:09:54.626Z,67.80
2018-02-13T10:12:20.993Z,69.30
2018-02-13T10:14:47.372Z,70.00
2018-02-13T10:17:14.637Z,69.80
2018-02-13T10:19:41.783Z,66.30
2018-02-13T10:22:08.923Z,66.30
2018-02-13T10:24:36.062Z,63.00
2018-02-13T10:27:02.459Z,63.00
2018-02-13T10:29:28.835Z,59.70
2018-02-13T10:31:55.259Z,58.60
2018-02-13T10:34:21.689Z,58.40
2018-02-13T10:36:48.074Z,55.70
2018-02-13T10:39:15.822Z,56.20
2018-02-13T10:41:42.918Z,56.20
2018-02-13T10:44:09.276Z,56.20
2018-02-13T10:46:42.445Z,53.80
2018-02-13T10:49:08.850Z,53.80
2018-02-13T10:51:35.240Z,53.50
2018-02-13T10:54:02.430Z,54.30
2018-02-13T10:56:28.779Z,54.30
2018-02-13T10:58:55.138Z,53.30
2018-02-13T11:01:29.051Z,50.80
2018-02-13T11:03:56.173Z,50.50
2018-02-13T11:06:22.568Z,50.50
2018-02-13T11:08:48.935Z,48.50
2018-02-13T11:11:15.350Z,48.30
2018-02-13T11:13:42.418Z,49.30
2018-02-13T11:16:08.833Z,49.30
2018-02-13T11:18:35.169Z,49.00
2018-02-13T11:21:01.540Z,48.30
2018-02-13T11:23:27.901Z,48.80
2018-02-13T11:25:54.263Z,46.60
2018-02-13T11:28:21.589Z,48.00
2018-02-13T11:30:47.969Z,50.30
2018-02-13T11:33:14.354Z,49.60
2018-02-13T11:35:40.719Z,49.20
2018-02-13T11:38:07.094Z,49.70
2018-02-13T11:40:34.185Z,49.40
2018-02-13T11:43:00.560Z,49.40
2018-02-13T11:45:27.705Z,50.10
2018-02-13T11:47:54.800Z,52.60
2018-02-13T11:50:21.163Z,52.50
2018-02-13T11:52:47.528Z,53.70
2018-02-13T11:55:14.667Z,56.00
2018-02-13T11:57:41.796Z,57.70
2018-02-13T12:00:08.292Z,57.60
2018-02-13T12:02:34.658Z,55.70
2018-02-13T12:05:01.019Z,57.70
2018-02-13T12:07:28.134Z,55.20
2018-02-13T12:09:54.570Z,55.10
2018-02-13T12:12:20.935Z,55.60
2018-02-13T12:14:48.034Z,57.00
2018-02-13T12:17:14.411Z,57.00
2018-02-13T12:19:41.535Z,56.60
2018-02-13T12:22:07.920Z,56.50
2018-02-13T12:24:34.310Z,57.60
2018-02-13T12:27:00.691Z,58.20
2018-02-13T12:29:27.248Z,58.90
2018-02-13T12:31:53.637Z,58.10
2018-02-13T12:34:20.744Z,59.50
2018-02-13T12:36:47.350Z,59.50
2018-02-13T12:39:13.722Z,60.00
2018-02-13T12:41:40.135Z,58.80
2018-02-13T12:44:06.528Z,57.80
2018-02-13T12:46:33.712Z,56.90
2018-02-13T12:49:00.102Z,56.90
2018-02-13T12:51:27.215Z,55.70
2018-02-13T12:53:53.662Z,55.60
2018-02-13T12:56:20.023Z,55.60
2018-02-13T12:58:47.178Z,52.90
2018-02-13T13:01:13.654Z,52.90
2018-02-13T13:03:40.065Z,53.90
2018-02-13T13:06:06.454Z,52.10
2018-02-13T13:08:33.571Z,54.50
2018-02-13T13:10:59.949Z,54.50
2018-02-13T13:13:26.305Z,54.50
2018-02-13T13:15:52.729Z,53.30
2018-02-13T13:18:19.089Z,52.60
2018-02-13T13:20:45.447Z,52.60
2018-02-13T13:23:11.812Z,51.80
2018-02-13T13:25:38.187Z,53.40
2018-02-13T13:28:04.572Z,52.90
2018-02-13T13:30:30.970Z,52.00
2018-02-13T13:32:57.309Z,52.00
2018-02-13T13:35:23.736Z,51.30
2018-02-13T13:37:51.583Z,53.40
2018-02-13T13:40:17.948Z,52.80
2018-02-13T13:42:45.063Z,53.80
2018-02-13T13:45:11.466Z,53.80
2018-02-13T13:47:37.843Z,53.50
2018-02-13T13:50:04.211Z,54.60
2018-02-13T13:52:30.636Z,54.30
2018-02-13T13:54:56.999Z,53.30
2018-02-13T13:57:23.369Z,52.20
2018-02-13T13:59:49.734Z,52.00
2018-02-13T14:02:16.192Z,52.20
2018-02-13T14:04:42.619Z,53.20
2018-02-13T14:07:09.018Z,52.80
2018-02-13T14:09:36.194Z,52.00
2018-02-13T14:12:02.626Z,52.00
2018-02-13T14:14:29.005Z,50.70
2018-02-13T14:16:59.445Z,49.60
2018-02-13T14:19:25.891Z,48.90
2018-02-13T14:21:53.017Z,51.80
2018-02-13T14:24:19.388Z,51.80
2018-02-13T14:26:45.790Z,50.40
2018-02-13T14:29:12.930Z,52.00
2018-02-13T14:31:39.304Z,51.80
2018-02-13T14:34:05.683Z,50.70
2018-02-13T14:36:32.132Z,55.20
2018-02-13T14:38:58.498Z,57.90
2018-02-13T14:41:24.851Z,58.80
2018-02-13T14:43:51.202Z,59.10
2018-02-13T14:46:17.550Z,59.00
2018-02-13T14:48:43.907Z,60.10
2018-02-13T14:51:11.002Z,61.20
2018-02-13T14:53:37.371Z,60.50
2018-02-13T14:56:03.755Z,59.90
2018-02-13T14:58:30.116Z,59.60
2018-02-13T15:00:56.478Z,59.90
2018-02-13T15:03:23.748Z,60.40
2018-02-13T15:05:50.110Z,60.20
2018-02-13T15:08:16.462Z,61.00
2018-02-13T15:10:42.806Z,60.20
2018-02-13T15:13:09.198Z,59.30
2018-02-13T15:15:36.626Z,58.70
2018-02-13T15:18:18.652Z,57.70
2018-02-13T15:20:45.039Z,57.70
2018-02-13T15:23:12.146Z,58.90
2018-02-13T15:25:38.540Z,59.50
2018-02-13T15:28:04.948Z,59.80
2018-02-13T15:30:32.083Z,59.20
2018-02-13T15:32:58.497Z,59.20
2018-02-13T15:35:24.868Z,59.20
2018-02-13T15:37:52.030Z,59.10
2018-02-13T15:40:18.407Z,59.10
2018-02-13T15:42:44.787Z,60.30
2018-02-13T15:45:11.925Z,62.20
2018-02-13T15:47:38.315Z,62.20
2018-02-13T15:50:04.734Z,61.50
2018-02-13T15:52:31.078Z,60.60
2018-02-13T15:54:57.438Z,60.80
2018-02-13T15:57:23.810Z,60.90
2018-02-13T15:59:50.186Z,61.30
2018-02-13T16:02:16.571Z,60.90
2018-02-13T16:04:43.666Z,61.40
2018-02-13T16:07:10.024Z,61.40
2018-02-13T16:09:36.409Z,61.50
2018-02-13T16:12:02.810Z,62.20
2018-02-13T16:14:29.917Z,62.90
2018-02-13T16:16:56.314Z,62.80
2018-02-13T16:19:22.668Z,62.20
2018-02-13T16:21:49.056Z,62.80
2018-02-13T16:24:16.146Z,63.20
2018-02-13T16:26:42.504Z,63.20
2018-02-13T16:29:08.866Z,63.20
2018-02-13T16:31:35.226Z,63.40
2018-02-13T16:34:01.573Z,64.30
2018-02-13T16:36:27.968Z,64.00
2018-02-13T16:38:54.362Z,64.00
2018-02-13T16:41:20.724Z,64.30
2018-02-13T16:43:47.828Z,63.90
2018-02-13T16:46:14.229Z,63.80
2018-02-13T16:48:40.617Z,63.80
2018-02-13T16:51:07.713Z,64.90
2018-02-13T16:53:34.061Z,64.90
2018-02-13T16:56:00.432Z,64.70
2018-02-13T16:58:27.517Z,64.50
2018-02-13T17:00:54.769Z,64.50
2018-02-13T17:03:21.178Z,64.70
2018-02-13T17:05:48.309Z,65.20
2018-02-13T17:08:15.414Z,65.30
2018-02-13T17:10:41.773Z,65.20
2018-02-13T17:13:08.118Z,65.60
2018-02-13T17:15:35.223Z,66.90
2018-02-13T17:18:01.586Z,66.90
2018-02-13T17:20:27.979Z,67.40
2018-02-13T17:22:54.389Z,67.80
2018-02-13T17:25:20.730Z,68.80
2018-02-13T17:27:47.092Z,68.40
2018-02-13T17:30:13.467Z,68.80
2018-02-13T17:32:40.575Z,69.40
2018-02-13T17:35:06.932Z,69.40
2018-02-13T17:37:34.069Z,70.50
2018-02-13T17:40:00.508Z,70.40
2018-02-13T17:42:26.868Z,70.80
2018-02-13T17:44:53.963Z,70.70
2018-02-13T17:47:20.372Z,70.60
2018-02-13T17:49:46.743Z,71.00
2018-02-13T17:52:13.090Z,71.60
2018-02-13T17:54:40.186Z,72.30
2018-02-13T17:57:06.533Z,72.30
2018-02-13T17:59:32.876Z,72.20
2018-02-13T18:01:59.247Z,72.60
2018-02-13T18:04:26.379Z,72.20
2018-02-13T18:06:52.813Z,72.10
2018-02-13T18:09:19.908Z,72.50
2018-02-13T18:11:46.270Z,72.50
2018-02-13T18:14:12.683Z,71.10
2018-02-13T18:16:39.083Z,70.30
2018-02-13T18:19:05.457Z,71.20
2018-02-13T18:21:31.845Z,72.80
2018-02-13T18:23:58.214Z,73.40
2018-02-13T18:26:24.572Z,73.90
2018-02-13T18:28:50.973Z,75.00
2018-02-13T18:31:17.350Z,75.70
2018-02-13T18:33:44.457Z,75.80
2018-02-13T18:36:10.825Z,75.80
2018-02-13T18:38:37.204Z,75.50
2018-02-13T18:41:03.616Z,75.80
2018-02-13T18:43:30.763Z,76.00
2018-02-13T18:45:57.152Z,75.90
2018-02-13T18:48:23.530Z,76.10
2018-02-13T18:50:50.058Z,75.70
2018-02-13T18:53:16.454Z,75.30
2018-02-13T18:55:42.823Z,75.30
2018-02-13T18:58:09.222Z,75.30
2018-02-13T19:00:35.608Z,75.30
2018-02-13T19:03:01.953Z,74.70
2018-02-13T19:05:28.319Z,75.00
2018-02-13T19:07:54.679Z,75.70
2018-02-13T19:10:21.107Z,76.00
2018-02-13T19:12:47.471Z,76.80
2018-02-13T19:15:13.827Z,77.40
2018-02-13T19:17:40.177Z,77.70
2018-02-13T19:20:06.538Z,78.10
2018-02-13T19:22:32.902Z,78.40
2018-02-13T19:24:59.265Z,78.20
2018-02-13T19:27:25.636Z,77.90
2018-02-13T19:29:52.097Z,78.30
2018-02-13T19:32:18.498Z,78.70
2018-02-13T19:34:44.942Z,78.60
2018-02-13T19:37:11.369Z,78.60
2018-02-13T19:39:37.774Z,78.70
2018-02-13T19:42:05.070Z,79.10
2018-02-13T19:44:33.112Z,78.90
2018-02-13T19:47:00.204Z,79.00
2018-02-13T19:49:26.569Z,79.00
2018-02-13T19:51:53.004Z,79.30
2018-02-13T19:54:20.349Z,78.10
2018-02-13T19:56:46.705Z,78.00
2018-02-13T19:59:13.839Z,78.60
2018-02-13T20:01:40.937Z,77.90
2018-02-13T20:04:07.307Z,77.90
2018-02-13T20:06:33.668Z,77.90
2018-02-13T20:09:00.816Z,78.90
2018-02-13T20:11:27.208Z,78.90
2018-02-13T20:13:53.628Z,79.10
2018-02-13T20:16:20.027Z,79.60
2018-02-13T20:18:46.441Z,79.40
2018-02-13T20:21:13.541Z,79.60
2018-02-13T20:23:39.898Z,79.60
2018-02-13T20:26:06.275Z,80.60
2018-02-13T20:28:32.645Z,80.80
2018-02-13T20:30:59.044Z,80.50
2018-02-13T20:33:25.427Z,80.30
2018-02-13T20:35:51.795Z,80.20
2018-02-13T20:38:18.171Z,79.70
2018-02-13T20:40:46.053Z,80.00
2018-02-13T20:43:13.168Z,80.10
2018-02-13T20:45:39.530Z,80.10
2018-02-13T20:48:05.895Z,80.10
2018-02-13T20:50:32.263Z,80.00
2018-02-13T20:52:58.638Z,79.50
2018-02-13T20:55:25.845Z,79.20
2018-02-13T20:57:52.204Z,79.20
2018-02-13T21:00:18.683Z,79.30
2018-02-13T21:02:45.035Z,79.00
2018-02-13T21:05:11.417Z,78.90
2018-02-13T21:07:38.534Z,79.40
2018-02-13T21:10:04.895Z,78.90
2018-02-13T21:12:31.997Z,79.30
2018-02-13T21:14:58.358Z,79.30
2018-02-13T21:17:24.731Z,79.30
2018-02-13T21:19:51.089Z,79.20
2018-02-13T21:22:17.463Z,79.00
2018-02-13T21:24:43.830Z,79.10
2018-02-13T21:27:10.225Z,78.50
2018-02-13T21:29:36.585Z,78.30
2018-02-13T21:32:02.973Z,79.20
2018-02-13T21:34:29.322Z,78.40
2018-02-13T21:36:55.682Z,78.30
2018-02-13T21:39:22.090Z,78.40
2018-02-13T21:41:49.223Z,78.90
2018-02-13T21:44:17.085Z,79.50
2018-02-13T21:46:43.458Z,79.40
2018-02-13T21:49:09.825Z,80.30
2018-02-13T21:51:36.195Z,80.10
2018-02-13T21:54:02.562Z,80.40
2018-02-13T21:56:28.967Z,80.60
2018-02-13T21:58:56.174Z,79.50
2018-02-13T22:01:22.549Z,79.50
2018-02-13T22:03:49.732Z,79.40
2018-02-13T22:06:16.170Z,78.70
2018-02-13T22:08:42.532Z,78.70
2018-02-13T22:11:08.908Z,78.60
2018-02-13T22:13:35.272Z,78.60
2018-02-13T22:16:01.682Z,78.50
2018-02-13T22:18:28.059Z,78.80
2018-02-13T22:20:54.419Z,79.50
2018-02-13T22:23:21.539Z,80.00
2018-02-13T22:25:47.903Z,80.00
2018-02-13T22:28:15.000Z,81.10
2018-02-13T22:30:41.378Z,81.00
2018-02-13T22:33:08.491Z,80.00
2018-02-13T22:35:34.861Z,80.00
2018-02-13T22:38:02.805Z,79.70
2018-02-13T22:40:29.170Z,79.70
2018-02-13T22:42:55.550Z,79.70
2018-02-13T22:45:21.952Z,79.80
2018-02-13T22:47:48.335Z,79.40
2018-02-13T22:50:14.705Z,79.00
2018-02-13T22:52:41.107Z,78.40
2018-02-13T22:55:08.235Z,77.80
2018-02-13T22:57:34.617Z,77.80
2018-02-13T23:00:00.980Z,77.70
2018-02-13T23:02:27.362Z,77.80
2018-02-13T23:04:54.533Z,77.30
2018-02-13T23:07:20.911Z,77.30
2018-02-13T23:09:47.377Z,76.80
2018-02-13T23:12:13.797Z,76.70
2018-02-13T23:14:40.161Z,76.70
2018-02-13T23:17:06.522Z,76.90
2018-02-13T23:19:32.893Z,76.80
2018-02-13T23:21:59.252Z,76.70
2018-02-13T23:24:25.675Z,77.50
2018-02-13T23:26:52.102Z,77.20
2018-02-13T23:29:18.506Z,77.20
2018-02-13T23:31:45.631Z,77.20
2018-02-13T23:34:12.011Z,77.20
2018-02-13T23:36:39.114Z,77.20
2018-02-13T23:39:05.473Z,77.20
2018-02-13T23:41:31.830Z,77.20
2018-02-13T23:43:58.239Z,77.40
2018-02-13T23:46:24.610Z,78.00
2018-02-13T23:48:50.975Z,78.30
2018-02-13T23:51:17.343Z,78.80
2018-02-13T23:53:44.446Z,79.20
2018-02-13T23:56:11.543Z,79.50
2018-02-13T23:58:38.673Z,79.60
